createdAt,value
2019-01-08T00:02:02.785Z,174.00
2019-01-08T00:04:17.161Z,170.70
2019-01-08T00:06:30.862Z,171.90
2019-01-08T00:08:47.256Z,148.17
2019-01-08T00:10:59.360Z,150.27
2019-01-08T00:13:26.766Z,170.50
2019-01-08T00:15:30.300Z,154.90
2019-01-08T00:17:44.145Z,168.53
2019-01-08T00:20:05.368Z,184.17
2019-01-08T00:23:13.070Z,170.50
2019-01-08T00:25:20.650Z,166.20
2019-01-08T00:28:13.298Z,199.40
2019-01-08T00:30:29.425Z,190.67
2019-01-08T00:33:19.911Z,172.83
2019-01-08T00:35:28.666Z,132.80
2019-01-08T00:37:40.797Z,201.70
2019-01-08T00:39:50.108Z,176.47
2019-01-08T00:42:01.416Z,190.53
2019-01-08T00:46:39.991Z,177.63
2019-01-08T00:48:51.519Z,197.60
2019-01-08T00:51:03.080Z,189.80
2019-01-08T00:53:16.884Z,166.83
2019-01-08T00:55:26.697Z,201.90
2019-01-08T01:00:16.551Z,187.17
2019-01-08T01:02:34.347Z,223.10
2019-01-08T01:04:46.353Z,166.90
2019-01-08T01:07:01.961Z,164.40
2019-01-08T01:09:20.490Z,156.83
2019-01-08T01:11:32.915Z,169.10
2019-01-08T01:13:45.836Z,157.60
2019-01-08T01:15:54.340Z,184.10
2019-01-08T01:18:06.992Z,160.63
2019-01-08T01:20:25.123Z,196.37
2019-01-08T01:22:44.271Z,154.37
2019-01-08T01:25:16.707Z,175.00
2019-01-08T01:27:42.539Z,185.07
2019-01-08T01:29:49.628Z,155.73
2019-01-08T01:31:56.990Z,156.30
2019-01-08T01:34:04.530Z,174.47
2019-01-08T01:36:19.705Z,164.80
2019-01-08T01:38:28.354Z,185.30
2019-01-08T01:40:44.800Z,208.80
2019-01-08T01:42:56.254Z,74.60
2019-01-08T01:45:14.450Z,88.20
2019-01-08T01:47:29.931Z,64.30
2019-01-08T01:49:49.503Z,56.87
2019-01-08T01:51:59.507Z,47.43
2019-01-08T01:54:11.439Z,65.40
2019-01-08T01:56:25.448Z,46.07
2019-01-08T01:58:38.331Z,41.43
2019-01-08T02:03:37.714Z,42.63
2019-01-08T02:05:39.100Z,68.70
2019-01-08T02:08:01.886Z,95.47
2019-01-08T02:10:12.134Z,73.03
2019-01-08T02:12:22.798Z,114.00
2019-01-08T02:14:39.023Z,84.13
2019-01-08T02:16:49.217Z,113.23
2019-01-08T02:18:58.935Z,105.43
2019-01-08T02:21:10.833Z,115.87
2019-01-08T02:25:29.506Z,101.60
2019-01-08T02:27:39.176Z,88.53
2019-01-08T02:29:51.011Z,89.83
2019-01-08T02:32:03.786Z,96.27
2019-01-08T02:34:13.936Z,99.43
2019-01-08T02:36:41.229Z,103.90
2019-01-08T02:38:49.558Z,104.90
2019-01-08T02:40:59.690Z,108.43
2019-01-08T02:43:10.078Z,118.10
2019-01-08T02:45:18.293Z,104.33
2019-01-08T02:47:27.838Z,100.97
2019-01-08T02:49:40.604Z,110.57
2019-01-08T02:51:54.561Z,111.97
2019-01-08T02:54:03.424Z,128.30
2019-01-08T02:56:19.840Z,108.47
2019-01-08T02:58:29.494Z,105.77
2019-01-08T03:00:39.338Z,117.33
2019-01-08T03:02:59.359Z,118.87
2019-01-08T03:05:11.054Z,88.07
2019-01-08T03:07:20.282Z,87.17
2019-01-08T03:09:46.843Z,72.27
2019-01-08T03:12:04.482Z,71.23
2019-01-08T03:14:17.762Z,79.57
2019-01-08T03:16:35.830Z,71.83
2019-01-08T03:18:55.159Z,75.03
2019-01-08T03:21:04.535Z,73.73
2019-01-08T03:23:20.980Z,76.70
2019-01-08T03:25:30.261Z,75.93
2019-01-08T03:27:39.534Z,74.33
2019-01-08T03:29:51.363Z,69.40
2019-01-08T03:32:01.912Z,67.00
2019-01-08T03:34:14.964Z,61.57
2019-01-08T03:36:41.611Z,63.43
2019-01-08T03:38:53.133Z,56.33
2019-01-08T03:41:05.774Z,50.93
2019-01-08T03:43:14.400Z,46.20
2019-01-08T03:45:27.634Z,42.43
2019-01-08T03:47:37.839Z,40.67
2019-01-08T03:55:00.791Z,37.40
2019-01-08T03:57:20.048Z,37.93
2019-01-08T03:59:41.734Z,38.60
2019-01-08T04:01:44.250Z,36.83
2019-01-08T04:03:56.228Z,54.03
2019-01-08T04:06:31.764Z,65.57
2019-01-08T04:08:45.802Z,91.27
2019-01-08T04:10:54.027Z,87.47
2019-01-08T04:13:53.845Z,88.00
2019-01-08T04:16:02.513Z,97.73
2019-01-08T04:18:12.248Z,105.60
2019-01-08T04:20:27.962Z,118.03
2019-01-08T04:22:40.991Z,110.70
2019-01-08T04:24:52.276Z,129.03
2019-01-08T04:27:17.280Z,121.87
2019-01-08T04:29:27.402Z,134.50
2019-01-08T04:31:37.616Z,126.07
2019-01-08T04:33:53.138Z,107.50
2019-01-08T04:36:02.635Z,142.30
2019-01-08T04:38:12.135Z,150.40
2019-01-08T04:40:21.398Z,144.17
2019-01-08T04:42:31.068Z,130.47
2019-01-08T04:44:41.523Z,123.97
2019-01-08T04:46:49.931Z,136.80
2019-01-08T04:49:00.496Z,114.10
2019-01-08T04:51:12.982Z,120.50
2019-01-08T04:53:21.119Z,133.53
2019-01-08T04:55:28.229Z,102.17
2019-01-08T04:57:40.637Z,137.87
2019-01-08T04:59:58.756Z,128.67
2019-01-08T05:02:01.371Z,145.83
2019-01-08T05:04:11.847Z,122.97
2019-01-08T05:06:23.085Z,147.47
2019-01-08T05:08:44.608Z,121.73
2019-01-08T05:11:53.998Z,120.50
2019-01-08T05:13:36.366Z,123.93
2019-01-08T05:15:43.537Z,157.33
2019-01-08T05:18:16.617Z,145.17
2019-01-08T05:20:30.783Z,155.30
2019-01-08T05:22:57.803Z,158.83
2019-01-08T05:25:19.904Z,163.73
2019-01-08T05:27:35.731Z,167.73
2019-01-08T05:29:47.723Z,167.40
2019-01-08T05:32:01.811Z,175.03
2019-01-08T05:34:25.682Z,171.53
2019-01-08T05:36:43.526Z,165.97
2019-01-08T05:39:00.622Z,173.67
2019-01-08T05:41:22.338Z,171.67
2019-01-08T05:43:38.376Z,163.33
2019-01-08T05:45:45.626Z,167.90
2019-01-08T05:48:18.943Z,180.73
2019-01-08T05:50:28.560Z,156.33
2019-01-08T05:52:44.805Z,166.13
2019-01-08T05:55:05.149Z,155.50
2019-01-08T05:58:46.522Z,155.83
2019-01-08T05:59:55.438Z,142.73
2019-01-08T06:03:09.543Z,168.20
2019-01-08T06:04:48.971Z,153.70
2019-01-08T06:06:57.730Z,169.40
2019-01-08T06:09:25.762Z,171.97
2019-01-08T06:11:44.090Z,161.70
2019-01-08T06:14:13.398Z,181.33
2019-01-08T06:16:31.502Z,166.93
2019-01-08T06:18:49.393Z,176.37
2019-01-08T06:21:11.890Z,169.50
2019-01-08T06:23:24.582Z,182.23
2019-01-08T06:25:32.046Z,168.60
2019-01-08T06:27:54.874Z,187.67
2019-01-08T06:30:06.923Z,182.33
2019-01-08T06:32:20.390Z,181.63
2019-01-08T06:34:38.295Z,199.93
2019-01-08T06:36:51.862Z,199.10
2019-01-08T06:39:09.576Z,196.63
2019-01-08T06:41:25.703Z,200.80
2019-01-08T06:43:39.693Z,206.17
2019-01-08T06:45:45.514Z,204.43
2019-01-08T06:48:36.847Z,218.13
2019-01-08T06:50:45.254Z,193.87
2019-01-08T06:52:58.829Z,198.50
2019-01-08T06:55:20.006Z,192.67
2019-01-08T06:57:41.974Z,187.30
2019-01-08T07:00:32.902Z,182.80
2019-01-08T07:02:41.010Z,176.23
2019-01-08T07:05:36.969Z,184.73
2019-01-08T07:06:58.590Z,180.37
2019-01-08T07:09:07.444Z,181.73
2019-01-08T07:11:27.544Z,195.40
2019-01-08T07:13:45.838Z,195.63
2019-01-08T07:15:53.233Z,193.90
2019-01-08T07:18:41.959Z,195.50
2019-01-08T07:20:55.708Z,201.03
2019-01-08T07:23:51.926Z,194.70
2019-01-08T07:26:07.848Z,196.13
2019-01-08T07:28:35.876Z,204.67
2019-01-08T07:31:14.211Z,194.33
2019-01-08T07:33:37.514Z,214.17
2019-01-08T07:35:45.263Z,197.37
2019-01-08T07:38:01.258Z,211.13
2019-01-08T07:42:50.898Z,218.20
2019-01-08T07:45:13.616Z,212.20
2019-01-08T07:47:31.693Z,214.10
2019-01-08T07:49:48.199Z,238.03
2019-01-08T07:51:55.765Z,219.80
2019-01-08T07:55:43.349Z,235.57
2019-01-08T07:57:03.517Z,211.00
2019-01-08T07:59:19.512Z,197.03
2019-01-08T08:01:33.420Z,209.10
2019-01-08T08:03:53.007Z,207.67
2019-01-08T08:06:10.904Z,183.00
2019-01-08T08:08:25.620Z,171.33
2019-01-08T08:11:30.251Z,185.10
2019-01-08T08:16:31.560Z,194.83
2019-01-08T08:18:44.691Z,194.73
2019-01-08T08:20:56.267Z,195.80
2019-01-08T08:23:33.213Z,191.60
2019-01-08T08:25:37.957Z,195.13
2019-01-08T08:27:54.091Z,192.97
2019-01-08T08:30:15.794Z,206.97
2019-01-08T08:32:58.680Z,213.60
2019-01-08T08:35:20.369Z,207.20
2019-01-08T08:37:45.697Z,205.77
2019-01-08T08:40:02.626Z,218.23
2019-01-08T08:42:11.026Z,215.87
2019-01-08T08:44:29.815Z,226.27
2019-01-08T08:46:37.274Z,217.30
2019-01-08T08:48:55.991Z,224.40
2019-01-08T08:51:07.246Z,222.90
2019-01-08T08:53:19.050Z,242.60
2019-01-08T08:55:26.549Z,231.50
2019-01-08T08:57:34.252Z,232.57
2019-01-08T08:59:57.047Z,219.03
2019-01-08T09:02:37.968Z,217.03
2019-01-08T09:05:22.208Z,210.00
2019-01-08T09:07:29.716Z,195.13
2019-01-08T09:09:41.893Z,194.70
2019-01-08T09:11:57.879Z,152.03
2019-01-08T09:14:31.071Z,150.67
2019-01-08T09:17:01.385Z,144.37
2019-01-08T09:24:26.459Z,155.93
2019-01-08T09:26:40.094Z,152.83
2019-01-08T09:31:15.074Z,164.90
2019-01-08T09:35:51.774Z,209.73
2019-01-08T09:37:59.629Z,206.77
2019-01-08T09:42:59.679Z,205.23
2019-01-08T09:45:14.303Z,221.90
2019-01-08T09:47:29.497Z,211.53
2019-01-08T09:49:55.544Z,219.50
2019-01-08T09:52:07.912Z,245.93
2019-01-08T09:54:44.832Z,214.93
2019-01-08T09:59:35.506Z,219.23
2019-01-08T10:01:43.411Z,231.00
2019-01-08T10:03:53.509Z,249.20
2019-01-08T10:11:29.049Z,216.50
2019-01-08T10:13:43.345Z,214.70
2019-01-08T10:15:51.336Z,200.50
2019-01-08T10:18:12.590Z,195.20
2019-01-08T10:20:23.874Z,209.97
2019-01-08T10:22:59.182Z,161.17
2019-01-08T10:25:16.347Z,151.53
2019-01-08T10:27:45.528Z,138.57
2019-01-08T10:30:00.029Z,123.47
2019-01-08T10:32:15.895Z,176.70
2019-01-08T10:34:27.736Z,159.77
2019-01-08T10:36:40.746Z,173.63
2019-01-08T10:38:52.565Z,184.20
2019-01-08T10:41:04.228Z,203.63
2019-01-08T10:43:18.647Z,221.77
2019-01-08T10:45:31.196Z,231.00
2019-01-08T10:50:52.782Z,234.10
2019-01-08T10:53:08.624Z,231.80
2019-01-08T10:55:20.993Z,214.17
2019-01-08T10:57:34.139Z,212.60
2019-01-08T10:59:52.349Z,218.23
2019-01-08T11:02:11.741Z,204.30
2019-01-08T11:04:34.334Z,211.57
2019-01-08T11:06:50.265Z,228.27
2019-01-08T11:09:07.394Z,228.47
2019-01-08T11:11:36.589Z,224.07
2019-01-08T11:13:53.622Z,237.63
2019-01-08T11:16:02.286Z,221.40
2019-01-08T11:18:19.231Z,192.23
2019-01-08T11:21:07.010Z,195.10
2019-01-08T11:23:31.378Z,187.03
2019-01-08T11:25:39.185Z,203.77
2019-01-08T11:27:58.091Z,176.93
2019-01-08T11:30:29.385Z,191.47
2019-01-08T11:32:44.836Z,160.00
2019-01-08T11:35:20.192Z,137.97
2019-01-08T11:40:26.676Z,125.87
2019-01-08T11:42:34.365Z,128.10
2019-01-08T11:44:54.929Z,138.43
2019-01-08T11:47:21.963Z,133.80
2019-01-08T11:49:39.336Z,197.60
2019-01-08T11:51:52.128Z,202.30
2019-01-08T11:54:09.218Z,187.27
2019-01-08T11:56:17.932Z,187.33
2019-01-08T11:58:59.837Z,195.80
2019-01-08T12:00:55.869Z,212.30
2019-01-08T12:03:31.492Z,224.10
2019-01-08T12:05:38.808Z,218.10
2019-01-08T12:07:58.307Z,231.43
2019-01-08T12:10:21.346Z,221.87
2019-01-08T12:12:43.101Z,233.10
2019-01-08T12:14:58.419Z,234.23
2019-01-08T12:17:16.486Z,231.03
2019-01-08T12:19:39.911Z,219.70
2019-01-08T12:21:47.349Z,227.83
2019-01-08T12:24:26.508Z,221.03
2019-01-08T12:26:34.474Z,235.30
2019-01-08T12:29:01.537Z,221.27
2019-01-08T12:31:07.725Z,234.00
2019-01-08T12:33:35.636Z,222.67
2019-01-08T12:35:42.707Z,223.43
2019-01-08T12:37:50.520Z,197.10
2019-01-08T12:42:42.170Z,157.50
2019-01-08T12:45:05.826Z,132.80
2019-01-08T12:47:20.782Z,134.90
2019-01-08T12:49:43.619Z,140.27
2019-01-08T12:52:30.748Z,118.10
2019-01-08T12:54:49.141Z,112.30
2019-01-08T12:57:01.912Z,113.07
2019-01-08T12:59:24.504Z,110.10
2019-01-08T13:01:33.165Z,117.63
2019-01-08T13:03:54.202Z,122.30
2019-01-08T13:09:19.645Z,103.17
2019-01-08T13:12:06.262Z,109.80
2019-01-08T13:14:37.003Z,94.07
2019-01-08T13:16:49.116Z,102.80
2019-01-08T13:19:03.699Z,94.27
2019-01-08T13:21:16.390Z,99.40
2019-01-08T13:23:56.118Z,90.70
2019-01-08T13:26:03.648Z,95.60
2019-01-08T13:28:18.743Z,98.17
2019-01-08T13:30:35.389Z,131.13
2019-01-08T13:32:42.720Z,105.10
2019-01-08T13:34:58.483Z,106.20
2019-01-08T13:37:13.580Z,114.67
2019-01-08T13:39:31.794Z,88.43
2019-01-08T13:42:03.822Z,94.33
2019-01-08T13:44:25.057Z,103.30
2019-01-08T13:46:32.924Z,123.27
2019-01-08T13:49:17.090Z,105.57
2019-01-08T13:51:40.793Z,88.30
2019-01-08T13:53:49.911Z,197.23
2019-01-08T13:55:57.765Z,92.83
2019-01-08T14:00:50.660Z,155.00
2019-01-08T14:05:48.675Z,143.33
2019-01-08T14:08:49.822Z,86.67
2019-01-08T14:10:57.178Z,84.87
2019-01-08T14:13:42.279Z,110.40
2019-01-08T14:15:37.591Z,76.83
2019-01-08T14:18:03.460Z,106.90
2019-01-08T14:20:17.906Z,117.80
2019-01-08T14:23:14.606Z,77.37
2019-01-08T14:25:24.906Z,92.73
2019-01-08T14:27:39.853Z,78.50
2019-01-08T14:29:55.668Z,173.33
2019-01-08T14:32:26.051Z,193.87
2019-01-08T14:34:44.651Z,138.93
2019-01-08T14:37:50.446Z,133.70
2019-01-08T14:40:11.587Z,146.47
2019-01-08T14:42:40.251Z,123.57
2019-01-08T14:45:15.647Z,178.63
2019-01-08T14:51:32.913Z,155.97
2019-01-08T14:53:49.608Z,171.83
2019-01-08T14:55:58.284Z,122.03
2019-01-08T14:58:35.494Z,155.17
2019-01-08T15:04:12.068Z,105.47
2019-01-08T15:06:35.820Z,129.40
2019-01-08T15:09:20.266Z,143.27
2019-01-08T15:11:39.296Z,133.47
2019-01-08T15:13:58.881Z,160.63
2019-01-08T15:17:13.626Z,152.57
2019-01-08T15:18:25.550Z,181.00
2019-01-08T15:20:45.126Z,131.60
2019-01-08T15:22:58.257Z,134.33
2019-01-08T15:25:26.144Z,162.17
2019-01-08T15:27:30.629Z,135.20
2019-01-08T15:29:46.168Z,153.80
2019-01-08T15:31:58.965Z,108.73
2019-01-08T15:34:22.014Z,130.43
2019-01-08T15:36:30.169Z,162.87
2019-01-08T15:39:03.007Z,167.33
2019-01-08T15:41:14.919Z,131.03
2019-01-08T15:43:27.480Z,160.03
2019-01-08T15:45:35.322Z,111.47
2019-01-08T15:50:34.328Z,169.30
2019-01-08T15:52:41.802Z,188.70
2019-01-08T15:54:58.267Z,187.70
2019-01-08T15:57:08.437Z,177.23
2019-01-08T15:59:19.017Z,165.60
2019-01-08T16:01:52.888Z,161.37
2019-01-08T16:04:14.492Z,129.23
2019-01-08T16:06:22.690Z,125.10
2019-01-08T16:08:34.914Z,125.87
2019-01-08T16:10:50.384Z,106.10
2019-01-08T16:13:16.125Z,154.00
2019-01-08T16:15:25.725Z,160.00
2019-01-08T16:17:36.427Z,188.13
2019-01-08T16:19:50.152Z,162.10
2019-01-08T16:22:17.348Z,181.27
2019-01-08T16:24:35.434Z,190.60
2019-01-08T16:26:59.137Z,143.67
2019-01-08T16:29:11.859Z,207.10
2019-01-08T16:31:21.323Z,219.83
2019-01-08T16:33:35.382Z,192.80
2019-01-08T16:35:42.865Z,166.20
2019-01-08T16:37:50.076Z,172.53
2019-01-08T16:40:10.145Z,206.90
2019-01-08T16:42:22.802Z,219.50
2019-01-08T16:44:53.632Z,201.97
2019-01-08T16:47:03.469Z,203.70
2019-01-08T16:49:12.356Z,158.53
2019-01-08T16:51:19.905Z,133.03
2019-01-08T16:53:47.826Z,121.77
2019-01-08T16:55:55.627Z,113.50
2019-01-08T16:58:04.217Z,121.37
2019-01-08T17:00:40.724Z,161.40
2019-01-08T17:02:54.267Z,163.03
2019-01-08T17:05:19.966Z,160.30
2019-01-08T17:07:51.403Z,181.13
2019-01-08T17:09:50.162Z,157.33
2019-01-08T17:12:13.578Z,181.97
2019-01-08T17:14:27.483Z,175.70
2019-01-08T17:16:37.260Z,160.80
2019-01-08T17:18:45.821Z,191.23
2019-01-08T17:20:56.871Z,167.43
2019-01-08T17:23:10.548Z,164.67
2019-01-08T17:25:20.431Z,202.20
2019-01-08T17:27:35.115Z,146.07
2019-01-08T17:30:05.012Z,212.97
2019-01-08T17:32:14.010Z,187.10
2019-01-08T17:34:22.231Z,201.57
2019-01-08T17:36:29.701Z,150.47
2019-01-08T17:38:37.858Z,150.07
2019-01-08T17:40:46.009Z,187.07
2019-01-08T17:42:54.361Z,161.10
2019-01-08T17:45:02.497Z,209.13
2019-01-08T17:47:09.702Z,154.27
2019-01-08T17:49:17.529Z,182.07
2019-01-08T17:51:25.734Z,186.17
2019-01-08T17:53:33.119Z,192.63
2019-01-08T17:55:43.005Z,166.87
2019-01-08T17:57:52.463Z,162.57
2019-01-08T17:59:59.937Z,189.90
2019-01-08T18:02:14.224Z,197.73
2019-01-08T18:04:21.659Z,208.17
2019-01-08T18:06:29.836Z,207.83
2019-01-08T18:08:37.318Z,176.93
2019-01-08T18:10:44.937Z,179.87
2019-01-08T18:12:52.338Z,192.17
2019-01-08T18:15:00.284Z,180.70
2019-01-08T18:17:07.892Z,216.27
2019-01-08T18:19:15.319Z,161.60
2019-01-08T18:21:22.763Z,208.93
2019-01-08T18:23:30.140Z,190.23
2019-01-08T18:25:37.399Z,206.43
2019-01-08T18:27:44.641Z,219.63
2019-01-08T18:29:56.420Z,218.93
2019-01-08T18:32:03.787Z,216.40
2019-01-08T18:34:11.228Z,196.40
2019-01-08T18:36:18.548Z,183.27
2019-01-08T18:38:25.820Z,164.50
2019-01-08T18:40:33.189Z,155.40
2019-01-08T18:42:41.704Z,171.70
2019-01-08T18:44:48.699Z,177.90
2019-01-08T18:46:57.388Z,186.40
2019-01-08T18:49:05.123Z,159.83
2019-01-08T18:51:12.359Z,167.27
2019-01-08T18:53:19.751Z,200.03
2019-01-08T18:55:27.765Z,199.37
2019-01-08T18:57:35.072Z,204.20
2019-01-08T18:59:43.129Z,175.33
2019-01-08T19:01:58.450Z,173.77
2019-01-08T19:04:13.289Z,177.93
2019-01-08T19:06:28.399Z,211.97
2019-01-08T19:09:14.276Z,211.67
2019-01-08T19:14:03.290Z,181.10
2019-01-08T19:16:16.033Z,188.13
2019-01-08T19:18:31.760Z,213.47
2019-01-08T19:20:49.010Z,221.43
2019-01-08T19:23:00.744Z,249.00
2019-01-08T19:25:14.481Z,220.07
2019-01-08T19:27:31.055Z,226.40
2019-01-08T19:29:54.227Z,235.87
2019-01-08T19:32:22.447Z,212.83
2019-01-08T19:34:38.606Z,209.57
2019-01-08T19:36:54.293Z,176.83
2019-01-08T19:39:11.055Z,165.43
2019-01-08T19:41:23.360Z,226.77
2019-01-08T19:43:34.850Z,240.80
2019-01-08T19:45:42.559Z,231.57
2019-01-08T19:48:33.393Z,217.77
2019-01-08T19:50:48.833Z,195.70
2019-01-08T19:53:02.893Z,169.33
2019-01-08T19:55:21.400Z,157.43
2019-01-08T19:57:31.936Z,154.83
2019-01-08T19:59:54.771Z,150.97
2019-01-08T20:02:05.977Z,134.40
2019-01-08T20:04:18.327Z,145.33
2019-01-08T20:06:29.653Z,146.47
2019-01-08T20:09:11.715Z,136.30
2019-01-08T20:11:03.014Z,128.00
2019-01-08T20:13:24.946Z,129.00
2019-01-08T20:15:32.113Z,119.00
2019-01-08T20:17:45.011Z,139.20
2019-01-08T20:20:01.540Z,129.00
2019-01-08T20:22:10.667Z,120.10
2019-01-08T20:24:24.279Z,121.40
2019-01-08T20:26:38.287Z,119.33
2019-01-08T20:28:50.236Z,120.33
2019-01-08T20:31:04.329Z,116.47
2019-01-08T20:33:15.343Z,114.03
2019-01-08T20:35:28.682Z,109.73
2019-01-08T20:37:36.703Z,98.00
2019-01-08T20:39:59.247Z,90.63
2019-01-08T20:42:28.807Z,97.17
2019-01-08T20:44:45.386Z,81.67
2019-01-08T20:46:53.564Z,75.73
2019-01-08T20:49:04.111Z,64.03
2019-01-08T20:51:15.337Z,63.27
2019-01-08T20:53:28.470Z,61.03
2019-01-08T20:55:40.526Z,56.63
2019-01-08T20:57:53.734Z,59.63
2019-01-08T21:00:00.906Z,56.90
2019-01-08T21:02:11.052Z,52.60
2019-01-08T21:04:22.956Z,50.30
2019-01-08T21:06:33.935Z,55.60
2019-01-08T21:11:13.808Z,50.03
2019-01-08T21:13:28.392Z,52.40
2019-01-08T21:15:34.965Z,46.03
2019-01-08T21:17:46.869Z,44.00
2019-01-08T21:20:00.877Z,41.10
2019-01-08T21:22:12.504Z,42.90
2019-01-08T21:24:28.594Z,39.50
2019-01-08T21:26:55.094Z,41.73
2019-01-08T21:29:04.557Z,38.87
2019-01-08T21:31:18.953Z,34.03
2019-01-08T21:33:26.228Z,37.30
2019-01-08T21:35:34.009Z,37.00
2019-01-08T21:37:41.371Z,36.10
2019-01-08T21:39:48.681Z,37.00
2019-01-08T21:41:56.266Z,31.57
2019-01-08T21:44:03.647Z,28.63
2019-01-08T21:46:12.532Z,27.80
2019-01-08T21:48:19.929Z,24.53
2019-01-08T21:50:28.244Z,23.10
2019-01-08T21:52:36.140Z,22.60
2019-01-08T21:54:45.146Z,19.93
2019-01-08T21:56:54.120Z,17.93
2019-01-08T21:59:01.604Z,20.40
2019-01-08T22:01:09.024Z,17.47
2019-01-08T22:03:22.339Z,17.73
2019-01-08T22:05:32.808Z,18.83
2019-01-08T22:07:54.169Z,17.23
2019-01-08T22:10:03.948Z,15.43
2019-01-08T22:12:13.189Z,16.57
2019-01-08T22:14:20.498Z,14.60
2019-01-08T22:16:27.926Z,18.07
2019-01-08T22:18:35.408Z,17.93
2019-01-08T22:20:45.990Z,15.27
2019-01-08T22:23:00.007Z,13.13
2019-01-08T22:25:12.335Z,13.33
2019-01-08T22:27:26.106Z,15.63
2019-01-08T22:29:39.362Z,17.33
2019-01-08T22:31:52.724Z,15.57
2019-01-08T22:34:05.900Z,12.43
2019-01-08T22:36:24.668Z,15.87
2019-01-08T22:38:35.629Z,14.07
2019-01-08T22:40:50.029Z,12.47
2019-01-08T22:43:02.861Z,14.10
2019-01-08T22:45:21.022Z,17.63
2019-01-08T22:47:33.998Z,13.93
2019-01-08T22:49:51.301Z,14.30
2019-01-08T22:51:59.979Z,13.53
2019-01-08T22:54:12.517Z,12.57
2019-01-08T22:56:42.907Z,15.87
2019-01-08T22:58:58.893Z,14.60
2019-01-08T23:01:26.739Z,12.30
2019-01-08T23:03:43.492Z,14.10
2019-01-08T23:05:51.621Z,12.50
2019-01-08T23:08:00.935Z,11.90
2019-01-08T23:10:15.560Z,11.80
2019-01-08T23:12:28.243Z,12.27
2019-01-08T23:14:38.971Z,11.30
2019-01-08T23:16:46.138Z,13.30
2019-01-08T23:19:02.420Z,12.03
2019-01-08T23:21:13.209Z,10.70
2019-01-08T23:23:23.888Z,11.70
2019-01-08T23:25:34.435Z,13.47
2019-01-08T23:27:50.592Z,11.87
2019-01-08T23:30:07.502Z,12.10
2019-01-08T23:32:19.035Z,9.60
2019-01-08T23:34:30.576Z,12.73
2019-01-08T23:36:47.694Z,15.93
2019-01-08T23:39:25.943Z,13.90
2019-01-08T23:41:44.363Z,10.40
2019-01-08T23:43:57.932Z,11.83
2019-01-08T23:46:07.795Z,13.13
2019-01-08T23:48:18.099Z,13.30
2019-01-08T23:50:30.410Z,14.53
2019-01-08T23:53:16.139Z,12.47
2019-01-08T23:55:30.967Z,9.43
2019-01-08T23:57:41.700Z,8.90
